首页
METAR-TAF:

METAR-TAF

机场 :

福州, 中华人民共和国

福州长乐国际机场

纬度: 26-05N, 经度: 119-17E, 海拔: 85米

当前天气观测

该预报发布于11分钟前的00:00 UTC
风速8节,风向北转东北,在北转西北东北之间变化
温度 12°C
湿度 94%
气压 1021 hPa
能見度: 7000
多云层高于700英尺
阴天层高于1900英尺

METAR: ZSFZ 250000Z 02004MPS 340V040 7000 BKN007 OVC019 12/11 Q1021 BECMG TL0100 BKN011

时间: 08:11 (00:11 UTC)

预报

该预报发布于4小时和56分钟前的19:15 UTC
预报有效从25日的 00点(UTC)到 25日的 24点(UTC)
风速6节,风向东北
能見度: 4000
多云层高于1500英尺
轻雾
成为
从 25日的 07点(UTC)到 25日的 09点(UTC)
风速16节,风向东北

TAF: ZSFZ 241915Z 2500/2524 04003MPS 4000 BR BKN015 TX15/2506Z TN09/2521Z BECMG 2507/2509 04008MPS

超过4000个机场的气象观测和天气预报(METAR&TAF报告)。

可查询的气象台以黄色和红色小点在地图上表示。

将鼠标移到小点上方,可查看气象台名称。

然后点击查看天气观测和预报。

如需切换地图:点击带黑十字的绿色按钮放大地图;点击带横线的绿色按钮缩小地图;或者点击绿色箭头查看邻近地区的地图。


METAR-TAF: